Portada
METAR-TAF:

METAR-TAF

Aeroports :

Wings Field

Filadèlfia-Blue Bell, Pennsilvània, Estats Units d'Amèrica

latitud: 40-08-15N, longitud: 075-15-54W, altitud: 92 m

Observació

L'informe es va fer fa 20 minuts, a les 23:55 UTC
Vent 9 kt del Nord/Nord-Oest amb ràfegues de 17 kt, variant entre Nord-Oest i Nord
Temperatura 2°C
Humitat 51%
Pressió 1013 hPa
Visibilitat: 16.1 km
Cel clar

METAR: KLOM 042355Z AUTO 34009G17KT 310V010 10SM CLR 02/M07 A2992 RMK AO2 T00151072 10078 20014 400781014

Hora: 19:15 (00:15 UTC)


TAF: manca

Observacions i pronòstics meteorològics de més de 4000 aeroports (METAR i TAF).

Les estacions disponibles són els punts grocs i vermells al mapa.

Posi el ratolí al punt desitjat per veure el nom de l'estació.

Feu clic per veure les observacions i els pronòstics meteorològics.

Per canviar el mapa: feu clic els botons verds amb una creu de color negre per apropar; al botó verd amb un guió per allunyar la imatge; o en les fletxes verdes per a mapes adjacents.


METAR-TAF: